Time;durP1;ratioP1;P1;durP2;ratioP2;P2;SDS_P1;SDS_P2;PMS_P1;PMS_P2;Temp;Humidity;BMP_temperature;BMP_pressure;BME280_temperature;BME280_humidity;BME280_pressure;Samples;Min_cycle;Max_cycle;Signal;HPM_P1;HPM_P2
2023/05/22 00:01:41;;;;;;;20.90;14.23;;;;;;;19.61;63.56;101372.38;5002913;28;20052;-89
2023/05/22 00:04:07;;;;;;;22.50;14.57;;;;;;;19.62;63.60;101382.97;5007246;28;20515;-89
2023/05/22 00:06:32;;;;;;;21.63;13.80;;;;;;;19.60;63.73;101374.19;5005293;28;20022;-89
2023/05/22 00:08:58;;;;;;;23.02;14.98;;;;;;;19.52;63.79;101381.00;5008230;28;20136;-89
2023/05/22 00:11:24;;;;;;;20.55;14.68;;;;;;;19.52;63.80;101371.16;5008483;28;20030;-89
2023/05/22 00:13:50;;;;;;;23.42;15.38;;;;;;;19.41;64.42;101367.50;5007441;28;20033;-89
2023/05/22 00:16:15;;;;;;;21.35;14.10;;;;;;;19.48;63.78;101375.00;5003933;28;20026;-89
2023/05/22 00:18:41;;;;;;;26.13;15.50;;;;;;;19.46;63.83;101370.72;5005679;28;20317;-89
2023/05/22 00:21:06;;;;;;;21.67;15.32;;;;;;;19.52;63.96;101378.34;5007698;28;20022;-88
2023/05/22 00:23:32;;;;;;;21.77;14.60;;;;;;;19.49;63.35;101376.75;5005928;28;20397;-89
2023/05/22 00:25:57;;;;;;;25.30;15.35;;;;;;;19.45;64.29;101374.38;5007145;28;20029;-89
2023/05/22 00:28:22;;;;;;;23.58;13.88;;;;;;;19.38;63.50;101377.47;5005766;28;20045;-89
2023/05/22 00:30:47;;;;;;;21.45;14.18;;;;;;;19.33;64.18;101368.88;5021191;28;20045;-89
2023/05/22 00:33:13;;;;;;;24.73;15.40;;;;;;;19.32;64.51;101369.84;5005465;28;20482;-89
2023/05/22 00:35:38;;;;;;;20.33;14.60;;;;;;;19.26;64.55;101366.75;5007581;28;20030;-89
2023/05/22 00:38:05;;;;;;;21.38;14.90;;;;;;;19.21;64.40;101364.38;5008436;28;20030;-89
2023/05/22 00:40:30;;;;;;;22.90;16.35;;;;;;;19.17;64.83;101365.53;5005439;28;20419;-89
2023/05/22 00:42:55;;;;;;;24.23;14.93;;;;;;;19.13;64.78;101361.34;5021842;28;20030;-89
2023/05/22 00:45:23;;;;;;;22.13;14.55;;;;;;;19.05;65.22;101367.22;5005698;28;21231;-90
2023/05/22 00:47:48;;;;;;;22.50;14.27;;;;;;;18.97;65.11;101360.63;5022220;28;20037;-90
2023/05/22 00:50:14;;;;;;;24.55;15.63;;;;;;;18.99;65.53;101364.09;5019711;28;20065;-89
2023/05/22 00:52:41;;;;;;;24.58;15.30;;;;;;;18.97;65.85;101366.84;5029020;28;20017;-91
2023/05/22 00:55:08;;;;;;;19.73;15.02;;;;;;;18.78;66.99;101367.22;5010441;28;20421;-90
2023/05/22 00:57:35;;;;;;;24.13;15.43;;;;;;;18.65;67.37;101365.41;5011140;28;20017;-90
2023/05/22 01:00:04;;;;;;;20.55;14.35;;;;;;;18.67;66.76;101364.38;5028181;28;20032;-89
2023/05/22 01:02:31;;;;;;;19.40;14.10;;;;;;;18.71;66.98;101370.44;5027836;28;20029;-89
2023/05/22 01:04:57;;;;;;;21.77;14.70;;;;;;;18.74;66.01;101365.69;5027195;28;20106;-90
2023/05/22 01:07:22;;;;;;;21.30;14.52;;;;;;;18.72;66.52;101364.09;5011075;28;20500;-89
2023/05/22 01:09:48;;;;;;;24.88;15.57;;;;;;;18.64;66.97;101363.72;5010530;28;20036;-90
2023/05/22 01:12:29;;;;;;;23.80;14.77;;;;;;;18.60;66.49;101366.59;5028917;28;20021;-90
2023/05/22 01:15:11;;;;;;;22.30;14.35;;;;;;;18.51;66.71;101369.88;5027649;28;20060;-90
2023/05/22 01:17:51;;;;;;;25.73;15.73;;;;;;;18.53;66.79;101362.59;5008337;28;20152;-89
2023/05/22 01:20:35;;;;;;;25.38;14.07;;;;;;;18.52;66.75;101357.34;5023752;28;20029;-91
2023/05/22 01:23:22;;;;;;;23.40;16.08;;;;;;;18.47;67.30;101356.78;5026826;28;20119;-90
2023/05/22 01:26:01;;;;;;;23.15;15.68;;;;;;;18.32;68.41;101361.28;5009180;28;20075;-89
2023/05/22 01:28:45;;;;;;;24.13;16.45;;;;;;;18.33;67.30;101361.22;5028348;28;20029;-90
2023/05/22 01:31:16;;;;;;;22.90;16.35;;;;;;;18.17;68.58;101348.91;5025611;28;20021;-90
2023/05/22 01:33:45;;;;;;;23.75;16.17;;;;;;;18.24;68.53;101361.81;5025866;28;20380;-89
2023/05/22 01:36:14;;;;;;;19.05;15.43;;;;;;;18.37;67.52;101359.19;5024759;28;20022;-90
2023/05/22 01:38:41;;;;;;;22.90;16.48;;;;;;;18.28;67.82;101349.94;5030989;28;20491;-89
2023/05/22 01:41:07;;;;;;;24.65;16.00;;;;;;;18.31;67.66;101349.72;5005003;28;20022;-89
2023/05/22 01:43:33;;;;;;;26.80;17.05;;;;;;;18.27;67.50;101337.50;5025658;28;20029;-90
2023/05/22 01:46:00;;;;;;;27.10;16.10;;;;;;;18.17;68.25;101348.91;5010973;28;20119;-90
2023/05/22 01:48:26;;;;;;;24.77;17.27;;;;;;;17.99;69.41;101327.69;5022633;28;20044;-90
2023/05/22 01:50:53;;;;;;;23.80;16.08;;;;;;;18.02;68.30;101343.56;5029553;28;20037;-90
2023/05/22 01:54:04;;;;;;;24.85;17.52;;;;;;;18.16;68.00;101355.22;5029029;28;20028;-91
2023/05/22 01:56:47;;;;;;;32.40;17.25;;;;;;;17.97;68.79;101345.69;5008871;28;20072;-89
2023/05/22 01:59:22;;;;;;;24.38;17.33;;;;;;;18.07;68.67;101352.16;5027104;28;20449;-90
2023/05/22 02:01:50;;;;;;;26.42;17.45;;;;;;;18.07;68.70;101353.97;5012810;28;20528;-90
2023/05/22 02:04:21;;;;;;;29.52;18.63;;;;;;;17.88;68.94;101340.91;5027620;28;20025;-90
2023/05/22 02:06:48;;;;;;;24.73;17.20;;;;;;;17.84;69.66;101348.25;5027458;28;20556;-90
2023/05/22 02:09:16;;;;;;;26.80;18.00;;;;;;;17.77;69.67;101349.63;5027472;28;20095;-90
2023/05/22 02:11:42;;;;;;;28.80;18.73;;;;;;;17.77;69.68;101343.41;5024436;28;20030;-89
2023/05/22 02:14:10;;;;;;;26.33;18.27;;;;;;;17.88;69.25;101338.22;5024833;28;20104;-90
2023/05/22 02:16:36;;;;;;;25.58;18.30;;;;;;;17.75;69.69;101339.94;5011986;28;20059;-89
2023/05/22 02:19:05;;;;;;;28.88;18.75;;;;;;;17.71;69.75;101349.09;5014667;28;20396;-90
2023/05/22 02:21:32;;;;;;;31.40;20.35;;;;;;;17.60;69.87;101334.56;5032350;28;20536;-90
2023/05/22 02:23:58;;;;;;;31.23;19.80;;;;;;;17.59;70.01;101338.19;5029465;28;20029;-90
2023/05/22 02:26:24;;;;;;;29.42;20.38;;;;;;;17.56;69.99;101334.84;5031658;28;20476;-90
2023/05/22 02:28:49;;;;;;;26.83;19.02;;;;;;;17.55;70.37;101339.34;5013399;28;20031;-89
2023/05/22 02:31:16;;;;;;;31.00;20.67;;;;;;;17.43;71.04;101333.88;5029284;28;20534;-90
2023/05/22 02:33:42;;;;;;;32.88;19.83;;;;;;;17.44;70.09;101325.78;5029025;28;20392;-89
2023/05/22 02:36:09;;;;;;;31.20;19.63;;;;;;;17.50;69.79;101329.88;5014998;28;20031;-90
2023/05/22 02:38:35;;;;;;;27.15;20.58;;;;;;;17.40;69.83;101320.72;5030428;28;20037;-90
2023/05/22 02:41:00;;;;;;;30.20;20.45;;;;;;;17.44;69.97;101325.78;5014205;28;20408;-89
2023/05/22 02:43:26;;;;;;;31.58;20.17;;;;;;;17.52;69.65;101341.34;5031287;28;20029;-90
2023/05/22 02:45:51;;;;;;;30.40;20.55;;;;;;;17.49;70.23;101336.19;5014807;28;20453;-90
2023/05/22 02:48:17;;;;;;;26.65;19.20;;;;;;;17.46;70.14;101333.69;5029564;28;20037;-89
2023/05/22 02:50:43;;;;;;;28.30;20.35;;;;;;;17.46;70.00;101323.88;5031320;28;20084;-89
2023/05/22 02:53:08;;;;;;;32.22;20.90;;;;;;;17.47;69.87;101322.03;5031845;28;20031;-89
2023/05/22 02:55:34;;;;;;;30.38;20.63;;;;;;;17.42;70.00;101310.78;5013059;28;20021;-89
2023/05/22 02:57:59;;;;;;;27.77;20.40;;;;;;;17.38;70.49;101319.94;5031205;28;20159;-89
2023/05/22 03:00:24;;;;;;;30.60;21.52;;;;;;;17.28;70.69;101314.28;5032336;28;20034;-89
2023/05/22 03:02:50;;;;;;;32.00;21.48;;;;;;;17.26;70.90;101310.88;5037518;28;20076;-89
2023/05/22 03:05:16;;;;;;;28.20;20.63;;;;;;;17.26;70.77;101318.88;5030678;28;20037;-89
2023/05/22 03:07:42;;;;;;;29.20;20.65;;;;;;;17.28;71.23;101320.50;5030986;28;20108;-89
2023/05/22 03:10:07;;;;;;;32.25;19.42;;;;;;;17.29;70.63;101327.56;5013394;28;20132;-89
2023/05/22 03:12:32;;;;;;;33.90;21.13;;;;;;;17.22;70.60;101312.84;5013322;28;20476;-90
2023/05/22 03:14:58;;;;;;;29.67;20.42;;;;;;;17.19;70.59;101312.19;5031581;28;20033;-89
2023/05/22 03:17:23;;;;;;;29.70;22.17;;;;;;;17.19;71.02;101313.03;5029009;28;20018;-89
2023/05/22 03:19:48;;;;;;;28.55;20.83;;;;;;;17.12;71.64;101319.72;5010963;28;20033;-89
2023/05/22 03:22:13;;;;;;;31.85;20.05;;;;;;;17.06;70.74;101310.22;5030526;28;20025;-89
2023/05/22 03:24:39;;;;;;;31.60;21.48;;;;;;;17.06;71.27;101315.56;5027252;28;20137;-89
2023/05/22 03:27:04;;;;;;;35.65;21.50;;;;;;;16.91;71.44;101312.97;5028788;28;20028;-89
2023/05/22 03:29:30;;;;;;;27.92;20.45;;;;;;;16.88;71.91;101319.38;5012450;28;20495;-89
2023/05/22 03:31:55;;;;;;;27.48;20.50;;;;;;;16.91;71.45;101319.16;5011364;28;20420;-89
2023/05/22 03:34:21;;;;;;;29.63;20.55;;;;;;;16.97;71.09;101316.16;5009407;28;20037;-89
2023/05/22 03:36:47;;;;;;;30.23;20.63;;;;;;;16.97;71.26;101324.16;5030712;28;20561;-89
2023/05/22 03:39:12;;;;;;;32.05;21.02;;;;;;;16.90;71.44;101314.78;5029331;28;20108;-89
2023/05/22 03:41:37;;;;;;;29.27;20.55;;;;;;;16.91;71.20;101310.28;5030090;28;20033;-89
2023/05/22 03:44:03;;;;;;;27.30;20.92;;;;;;;16.93;71.11;101316.41;5032979;28;20048;-89
2023/05/22 03:46:28;;;;;;;31.50;21.60;;;;;;;17.01;70.41;101320.34;5032874;28;20112;-88
2023/05/22 03:48:53;;;;;;;31.20;22.10;;;;;;;16.90;71.27;101319.25;5028363;28;20431;-89
2023/05/22 03:51:18;;;;;;;32.83;22.13;;;;;;;16.82;71.20;101317.88;5011282;28;20042;-89
2023/05/22 03:53:44;;;;;;;33.05;22.30;;;;;;;16.80;71.45;101311.78;5028084;28;20022;-89
2023/05/22 03:56:09;;;;;;;34.75;22.45;;;;;;;16.66;71.38;101301.03;5029820;28;20029;-89
2023/05/22 03:58:34;;;;;;;31.17;22.13;;;;;;;16.66;71.76;101308.19;5013087;28;20431;-89
2023/05/22 04:00:59;;;;;;;32.70;23.25;;;;;;;16.55;72.08;101295.44;5031247;28;20520;-89
2023/05/22 04:03:26;;;;;;;30.98;22.48;;;;;;;16.19;73.02;101293.06;5027523;28;20033;-89
2023/05/22 04:05:51;;;;;;;35.80;22.00;;;;;;;16.18;73.32;101296.66;5028712;28;20071;-90
2023/05/22 04:08:17;;;;;;;34.90;23.05;;;;;;;16.19;73.06;101301.94;5026415;28;20284;-90
2023/05/22 04:10:45;;;;;;;32.80;21.33;;;;;;;16.18;73.15;101299.34;5010453;28;20029;-90
2023/05/22 04:13:11;;;;;;;35.97;23.83;;;;;;;16.14;74.15;101304.00;5010711;28;20373;-90
2023/05/22 04:15:37;;;;;;;38.20;24.02;;;;;;;16.15;73.39;101312.88;5027673;28;20026;-90
2023/05/22 04:18:02;;;;;;;34.42;24.05;;;;;;;16.15;73.42;101319.06;5004566;28;20044;-90
2023/05/22 04:20:27;;;;;;;36.55;23.17;;;;;;;16.36;72.19;101319.66;5016424;28;20454;-90
2023/05/22 04:22:56;;;;;;;39.45;24.90;;;;;;;16.80;71.18;101318.94;5024612;28;20108;-90
2023/05/22 04:25:21;;;;;;;38.00;24.20;;;;;;;16.81;70.51;101326.00;5012450;28;20017;-90
2023/05/22 04:27:47;;;;;;;42.42;26.25;;;;;;;16.22;73.36;101323.09;5023778;28;20026;-89
2023/05/22 04:30:13;;;;;;;35.72;23.40;;;;;;;16.28;72.21;101322.75;5027093;28;20508;-91
2023/05/22 04:32:39;;;;;;;39.13;25.80;;;;;;;16.27;73.39;101329.06;5026501;28;20797;-89
2023/05/22 04:35:05;;;;;;;36.80;23.77;;;;;;;16.34;72.83;101334.91;5013172;28;20025;-90
2023/05/22 04:37:30;;;;;;;35.65;24.05;;;;;;;16.30;73.48;101339.53;5015916;28;20031;-90
2023/05/22 04:40:01;;;;;;;35.17;23.42;;;;;;;16.31;73.14;101335.91;5027226;28;20041;-89
2023/05/22 04:42:27;;;;;;;40.63;25.08;;;;;;;16.55;72.66;101331.03;5015534;28;22220;-88
2023/05/22 04:44:53;;;;;;;37.70;24.23;;;;;;;16.69;71.89;101332.88;5014069;28;20022;-89
2023/05/22 04:47:18;;;;;;;34.55;23.15;;;;;;;16.68;71.07;101319.63;5009980;28;20317;-90
2023/05/22 04:49:45;;;;;;;40.28;24.70;;;;;;;16.82;71.36;101343.72;5028277;28;20053;-89
2023/05/22 04:52:10;;;;;;;42.55;25.38;;;;;;;16.77;71.74;101341.34;5025260;28;20032;-89
2023/05/22 04:54:37;;;;;;;41.67;25.35;;;;;;;16.83;71.09;101335.66;5027962;28;20033;-89
2023/05/22 04:57:03;;;;;;;41.20;25.98;;;;;;;16.92;70.69;101344.06;5026519;28;20032;-89
2023/05/22 04:59:30;;;;;;;41.97;25.42;;;;;;;16.95;70.77;101338.53;5024862;28;20033;-90
2023/05/22 05:01:55;;;;;;;40.33;25.02;;;;;;;17.00;70.16;101352.47;5025469;28;20071;-90
2023/05/22 05:04:21;;;;;;;44.35;26.50;;;;;;;16.96;69.95;101342.94;5026297;28;20501;-90
2023/05/22 05:06:46;;;;;;;44.35;26.15;;;;;;;16.96;70.46;101350.94;5027266;28;20072;-90
2023/05/22 05:09:11;;;;;;;40.53;24.48;;;;;;;16.89;70.53;101346.94;5025483;28;20030;-90
2023/05/22 05:11:37;;;;;;;43.25;25.35;;;;;;;16.89;70.80;101357.59;5026189;28;20052;-90
2023/05/22 05:14:03;;;;;;;39.67;23.70;;;;;;;16.92;69.96;101360.94;5025619;28;20028;-90
2023/05/22 05:16:28;;;;;;;40.97;25.05;;;;;;;16.94;70.41;101361.72;5020427;28;20040;-91
2023/05/22 05:18:54;;;;;;;41.83;25.55;;;;;;;16.98;70.62;101359.75;5029672;28;20040;-91
2023/05/22 05:21:20;;;;;;;46.13;25.10;;;;;;;17.02;70.36;101369.28;5023964;28;20395;-91
2023/05/22 05:23:46;;;;;;;38.55;25.92;;;;;;;16.88;71.34;101350.53;5025620;28;20034;-91
2023/05/22 05:26:11;;;;;;;41.22;23.58;;;;;;;16.99;70.55;101361.47;5030271;28;20480;-92
2023/05/22 05:28:37;;;;;;;41.20;24.73;;;;;;;17.00;70.41;101361.34;5011536;28;20262;-90
2023/05/22 05:31:02;;;;;;;38.10;23.92;;;;;;;17.14;69.53;101371.22;5029572;28;20108;-91
2023/05/22 05:33:28;;;;;;;48.15;26.00;;;;;;;17.17;70.00;101360.38;5012895;28;20112;-90
2023/05/22 05:35:53;;;;;;;44.78;26.25;;;;;;;17.23;69.91;101357.31;5031025;28;20029;-91
2023/05/22 05:38:18;;;;;;;44.38;25.33;;;;;;;17.30;70.27;101361.38;5031484;28;20741;-92
2023/05/22 05:40:44;;;;;;;49.72;27.83;;;;;;;17.22;70.11;101357.44;5009976;28;20032;-91
2023/05/22 05:43:10;;;;;;;42.55;24.02;;;;;;;17.15;70.28;101354.25;5026130;28;20120;-91
2023/05/22 05:45:35;;;;;;;47.33;26.65;;;;;;;17.15;70.31;101350.72;5030904;28;20025;-91
2023/05/22 05:48:00;;;;;;;46.05;26.77;;;;;;;17.25;70.60;101357.22;5036230;28;20029;-92
2023/05/22 05:50:25;;;;;;;50.33;26.80;;;;;;;17.39;70.04;101370.63;5007421;28;20049;-91
2023/05/22 05:52:51;;;;;;;49.33;26.85;;;;;;;17.46;69.11;101350.59;5026902;28;20025;-91
2023/05/22 05:55:16;;;;;;;52.42;28.92;;;;;;;17.70;69.25;101358.06;5028190;28;20120;-91
2023/05/22 05:57:42;;;;;;;49.88;27.58;;;;;;;17.77;69.38;101372.81;5010840;28;20021;-91
2023/05/22 06:00:10;;;;;;;50.95;27.00;;;;;;;17.76;68.93;101363.06;5026460;28;20492;-91
2023/05/22 06:02:36;;;;;;;50.72;27.63;;;;;;;17.74;68.17;101364.97;5025862;28;20033;-91
2023/05/22 06:05:03;;;;;;;54.67;26.85;;;;;;;17.92;68.20;101368.34;5009844;28;20473;-92
2023/05/22 06:07:29;;;;;;;53.33;27.60;;;;;;;17.89;68.42;101365.84;5030054;28;20025;-91
2023/05/22 06:09:54;;;;;;;48.78;26.83;;;;;;;17.81;68.54;101371.66;5025669;28;20681;-91
2023/05/22 06:12:20;;;;;;;48.97;28.00;;;;;;;17.75;69.21;101378.25;5007861;28;20047;-91
2023/05/22 06:14:45;;;;;;;51.97;28.55;;;;;;;17.67;69.83;101376.97;5029253;28;20421;-93
2023/05/22 06:17:10;;;;;;;49.50;28.13;;;;;;;17.64;69.36;101374.50;5023729;28;20103;-92
2023/05/22 06:19:36;;;;;;;48.10;26.77;;;;;;;17.71;69.42;101375.81;5025752;28;20037;-91
2023/05/22 06:22:02;;;;;;;47.55;26.90;;;;;;;17.72;69.41;101372.19;5022101;28;20481;-91
2023/05/22 06:24:27;;;;;;;46.33;27.83;;;;;;;17.77;69.43;101376.34;5026516;28;20032;-92
2023/05/22 06:26:52;;;;;;;48.97;26.88;;;;;;;17.78;69.22;101378.06;5023845;28;20439;-93
2023/05/22 06:29:18;;;;;;;47.38;26.92;;;;;;;17.70;69.11;101360.75;5008740;28;20021;-92
2023/05/22 06:31:43;;;;;;;47.15;26.85;;;;;;;17.81;68.86;101375.22;5009577;28;20029;-94
2023/05/22 06:34:08;;;;;;;44.22;26.88;;;;;;;17.91;68.98;101382.66;5024412;28;20433;-91
2023/05/22 06:36:34;;;;;;;41.45;26.67;;;;;;;18.07;68.64;101399.47;5027616;28;20104;-92
2023/05/22 06:39:00;;;;;;;49.45;27.77;;;;;;;18.04;68.60;101389.81;5010484;28;20087;-93
2023/05/22 06:41:26;;;;;;;54.13;28.50;;;;;;;18.06;68.93;101397.75;5026159;28;20471;-92
2023/05/22 06:43:51;;;;;;;47.20;28.15;;;;;;;18.07;68.60;101391.44;5011257;28;20021;-92
2023/05/22 06:46:16;;;;;;;47.58;28.38;;;;;;;18.09;69.13;101393.09;5026586;28;20083;-92
2023/05/22 06:48:41;;;;;;;42.83;26.38;;;;;;;18.31;68.19;101402.41;5010447;28;20112;-92
2023/05/22 06:51:10;;;;;;;43.60;27.23;;;;;;;18.42;67.97;101396.38;5025326;28;20018;-92
2023/05/22 06:53:35;;;;;;;45.30;26.85;;;;;;;18.61;67.32;101400.47;5011246;28;20067;-93
2023/05/22 06:56:00;;;;;;;49.08;26.90;;;;;;;18.72;67.01;101413.19;5028773;28;20045;-92
2023/05/22 06:58:26;;;;;;;47.20;27.63;;;;;;;18.62;67.38;101409.34;5029607;28;20038;-92
2023/05/22 07:00:52;;;;;;;46.13;27.63;;;;;;;18.61;67.38;101405.81;5013221;28;20036;-92
2023/05/22 07:03:18;;;;;;;48.38;28.27;;;;;;;18.58;67.10;101408.69;5027809;28;20033;-92
2023/05/22 07:05:43;;;;;;;46.58;28.10;;;;;;;18.58;67.78;101410.50;5009756;28;20017;-92
2023/05/22 07:08:09;;;;;;;47.95;27.95;;;;;;;18.68;67.45;101418.81;5024471;28;20039;-91
2023/05/22 07:10:34;;;;;;;48.08;27.75;;;;;;;18.77;66.99;101423.59;5032134;28;20025;-91
2023/05/22 07:12:59;;;;;;;45.40;28.25;;;;;;;18.72;67.42;101415.84;5024563;28;20034;-90
2023/05/22 07:15:25;;;;;;;46.05;27.40;;;;;;;18.74;67.35;101411.25;5029732;28;20408;-91
2023/05/22 07:17:50;;;;;;;46.97;28.77;;;;;;;18.89;67.14;101421.94;5018040;28;20034;-91
2023/05/22 07:20:16;;;;;;;53.33;30.83;;;;;;;18.94;66.66;101417.13;5031866;28;20131;-90
2023/05/22 07:22:41;;;;;;;51.58;30.52;;;;;;;19.01;65.99;101424.66;5033730;28;20032;-91
2023/05/22 07:25:07;;;;;;;50.78;29.63;;;;;;;18.99;66.04;101421.22;5028436;28;20431;-91
2023/05/22 07:27:32;;;;;;;50.20;31.17;;;;;;;19.04;65.77;101435.19;5028879;28;20055;-91
2023/05/22 07:29:58;;;;;;;53.40;30.77;;;;;;;19.02;66.02;101430.88;5032317;28;20029;-91
2023/05/22 07:32:23;;;;;;;47.75;29.42;;;;;;;18.95;66.68;101440.28;5030838;28;20446;-91
2023/05/22 07:34:48;;;;;;;51.15;29.58;;;;;;;18.91;66.07;101430.72;5032796;28;20026;-92
2023/05/22 07:37:14;;;;;;;54.65;30.80;;;;;;;18.90;66.91;101434.38;5024630;28;20025;-92
2023/05/22 07:39:39;;;;;;;46.53;29.40;;;;;;;18.97;65.99;101436.53;5022246;28;20029;-90
2023/05/22 07:42:05;;;;;;;47.15;29.77;;;;;;;19.15;66.30;101430.91;5024807;28;20395;-91
2023/05/22 07:44:31;;;;;;;48.60;30.67;;;;;;;19.25;65.74;101440.06;5023127;28;20035;-91
2023/05/22 07:46:56;;;;;;;52.33;31.73;;;;;;;19.32;65.53;101434.19;5011875;28;20029;-92
2023/05/22 07:49:22;;;;;;;47.88;30.95;;;;;;;19.35;65.24;101436.69;5008901;28;20038;-90
2023/05/22 07:51:48;;;;;;;51.95;31.17;;;;;;;19.49;65.41;101437.53;5004966;28;20034;-91
2023/05/22 07:54:14;;;;;;;53.20;32.78;;;;;;;19.63;64.47;101450.91;5007206;28;20088;-90
2023/05/22 07:56:42;;;;;;;50.90;30.95;;;;;;;19.63;64.72;101448.22;4991961;28;20448;-90
2023/05/22 07:59:10;;;;;;;50.03;31.35;;;;;;;19.80;64.24;101458.66;5011376;28;20398;-90
2023/05/22 08:01:36;;;;;;;51.22;31.85;;;;;;;19.90;63.83;101455.34;5008690;28;20025;-89
2023/05/22 08:04:02;;;;;;;56.00;31.88;;;;;;;19.88;64.03;101455.44;5008586;28;20030;-95
2023/05/22 08:06:28;;;;;;;52.63;32.75;;;;;;;19.94;64.28;101455.00;5012408;28;20038;-95
2023/05/22 08:08:54;;;;;;;52.72;33.20;;;;;;;19.96;63.83;101438.78;5003045;28;20030;-90
2023/05/22 08:11:20;;;;;;;50.72;33.65;;;;;;;19.93;63.99;101447.09;5010924;28;20084;-91
2023/05/22 08:13:45;;;;;;;51.05;33.90;;;;;;;20.08;64.21;101440.63;5003197;28;20097;-89
2023/05/22 08:16:10;;;;;;;53.20;34.15;;;;;;;20.21;64.23;101444.16;5008352;28;20455;-91
2023/05/22 08:18:36;;;;;;;61.42;34.03;;;;;;;20.48;62.79;101445.88;5007905;28;20127;-91
2023/05/22 08:21:01;;;;;;;54.58;32.25;;;;;;;20.63;62.65;101429.50;5011211;28;20026;-91
2023/05/22 08:23:26;;;;;;;59.22;34.38;;;;;;;20.94;61.63;101434.44;5007699;28;20034;-92
2023/05/22 08:25:52;;;;;;;53.50;34.22;;;;;;;20.89;60.99;101432.97;5018079;28;20064;-91
2023/05/22 08:28:17;;;;;;;62.22;34.15;;;;;;;21.12;61.38;101431.25;5013796;28;20519;-91
2023/05/22 08:30:42;;;;;;;54.05;31.80;;;;;;;21.47;59.88;101429.56;5010320;28;20036;-90
2023/05/22 08:33:07;;;;;;;48.38;33.10;;;;;;;21.54;61.61;101441.56;5004410;28;20366;-93
2023/05/22 08:35:33;;;;;;;55.88;32.42;;;;;;;21.41;59.96;101428.22;5011450;28;20148;-91
2023/05/22 08:37:58;;;;;;;59.25;35.10;;;;;;;21.38;60.22;101432.00;5024948;28;20029;-90
2023/05/22 08:40:38;;;;;;;150.25;40.30;;;;;;;21.46;60.14;101428.72;5006557;28;20026;-93
2023/05/22 08:43:05;;;;;;;67.60;32.88;;;;;;;21.59;60.41;101432.19;5009744;28;20092;-91
2023/05/22 08:45:32;;;;;;;54.05;32.47;;;;;;;21.72;59.34;101421.31;5006274;28;20030;-91
2023/05/22 08:47:58;;;;;;;51.92;32.75;;;;;;;21.75;59.26;101439.91;5022944;28;20033;-92
2023/05/22 08:50:24;;;;;;;52.50;32.75;;;;;;;21.90;59.48;101425.25;5009304;28;20140;-92
2023/05/22 08:52:51;;;;;;;53.03;33.13;;;;;;;22.40;57.99;101441.09;5010015;28;20109;-92
2023/05/22 08:55:18;;;;;;;46.78;31.80;;;;;;;22.75;57.21;101424.75;5009143;28;20030;-91
2023/05/22 08:57:44;;;;;;;51.42;31.40;;;;;;;22.81;56.29;101435.03;5010742;28;20026;-90
2023/05/22 09:00:10;;;;;;;97.75;36.72;;;;;;;23.02;56.46;101435.13;5007446;28;20445;-91
2023/05/22 09:02:37;;;;;;;69.97;34.30;;;;;;;22.82;56.85;101436.75;5002245;28;20108;-93
2023/05/22 09:05:05;;;;;;;71.65;32.92;;;;;;;23.23;56.12;101434.34;5005880;28;20057;-92
2023/05/22 09:07:31;;;;;;;111.30;35.50;;;;;;;23.58;56.06;101442.97;5004671;28;20029;-92
2023/05/22 09:09:56;;;;;;;48.95;31.45;;;;;;;23.96;53.45;101438.84;5032240;28;20381;-92
2023/05/22 09:12:21;;;;;;;51.78;33.30;;;;;;;24.07;53.28;101435.22;5003796;28;20051;-92
2023/05/22 09:14:47;;;;;;;49.78;32.38;;;;;;;24.29;52.93;101435.00;5008570;28;20021;-91
2023/05/22 09:17:15;;;;;;;48.17;33.47;;;;;;;24.26;53.30;101437.16;5003349;28;20048;-92
2023/05/22 09:19:45;;;;;;;45.10;31.88;;;;;;;24.35;53.10;101434.47;5006262;28;20060;-91
2023/05/22 09:22:10;;;;;;;47.55;32.00;;;;;;;24.07;53.44;101427.13;5002760;28;20397;-94
2023/05/22 09:24:44;;;;;;;48.35;33.10;;;;;;;23.87;54.35;101436.94;5006708;28;20025;-92
2023/05/22 09:27:10;;;;;;;48.25;32.80;;;;;;;23.70;54.60;101434.84;5011833;28;20029;-92
2023/05/22 09:29:55;;;;;;;47.90;33.25;;;;;;;23.40;56.44;101440.00;5004919;28;20021;-92
2023/05/22 09:32:21;;;;;;;56.30;36.22;;;;;;;23.52;55.46;101429.16;5006560;28;20033;-93
2023/05/22 09:34:47;;;;;;;55.65;36.42;;;;;;;23.79;54.97;101432.22;5009744;28;20069;-92
2023/05/22 09:37:13;;;;;;;57.42;37.80;;;;;;;24.11;54.47;101423.16;5005979;28;20029;-91
2023/05/22 09:39:43;;;;;;;71.28;41.30;;;;;;;24.64;53.58;101418.38;5004053;28;20048;-92
2023/05/22 09:42:11;;;;;;;64.57;38.17;;;;;;;24.85;51.54;101423.66;5005498;28;20494;-92
2023/05/22 09:44:37;;;;;;;62.92;38.40;;;;;;;24.71;51.76;101425.91;5000668;28;20533;-93
2023/05/22 09:47:04;;;;;;;70.15;38.75;;;;;;;24.73;51.04;101405.88;5006736;28;20133;-94
2023/05/22 09:49:30;;;;;;;67.25;39.60;;;;;;;24.66;52.02;101410.97;5015844;28;20099;-90
2023/05/22 09:51:56;;;;;;;64.90;39.38;;;;;;;24.67;52.63;101420.81;5018744;28;20030;-90
2023/05/22 09:54:25;;;;;;;55.97;37.03;;;;;;;25.05;52.27;101410.19;5012041;28;20469;-92
2023/05/22 09:56:54;;;;;;;51.92;33.78;;;;;;;25.15;50.73;101405.66;5005724;28;20405;-91
2023/05/22 09:59:25;;;;;;;45.33;31.70;;;;;;;25.15;51.15;101409.22;5024115;28;20531;-91
2023/05/22 10:01:52;;;;;;;43.05;29.67;;;;;;;25.71;49.32;101418.41;5024005;28;20371;-90
2023/05/22 10:04:20;;;;;;;53.25;32.30;;;;;;;25.88;49.28;101414.09;5023800;28;20040;-91
2023/05/22 10:06:50;;;;;;;46.72;31.98;;;;;;;26.26;48.40;101423.97;5027344;28;20032;-93
2023/05/22 10:09:17;;;;;;;39.78;28.30;;;;;;;26.54;48.24;101415.88;5008217;28;20040;-92
2023/05/22 10:11:43;;;;;;;42.50;29.27;;;;;;;27.17;46.15;101416.72;5028377;28;20025;-91
2023/05/22 10:14:09;;;;;;;42.08;29.67;;;;;;;27.34;45.37;101411.47;5029706;28;20084;-92
2023/05/22 10:16:38;;;;;;;49.70;32.35;;;;;;;27.67;44.32;101418.00;5024197;28;20021;-92
2023/05/22 10:19:05;;;;;;;55.58;35.05;;;;;;;27.82;45.33;101411.00;5011250;28;20351;-91
2023/05/22 10:21:31;;;;;;;56.53;37.15;;;;;;;27.28;46.38;101417.50;5029909;28;20030;-93
2023/05/22 10:23:59;;;;;;;52.80;34.95;;;;;;;27.37;45.55;101409.28;5004538;28;20480;-93
2023/05/22 10:26:25;;;;;;;51.88;34.72;;;;;;;27.49;44.99;101406.31;5032126;28;20088;-92
2023/05/22 10:28:59;;;;;;;59.38;35.58;;;;;;;27.67;44.83;101404.41;5030097;28;20115;-93
2023/05/22 10:31:41;;;;;;;55.30;36.58;;;;;;;27.63;45.24;101411.16;5008766;28;20025;-92
2023/05/22 10:34:11;;;;;;;53.92;35.80;;;;;;;27.56;45.46;101405.53;5024519;28;20033;-93
2023/05/22 10:37:07;;;;;;;58.55;35.97;;;;;;;27.64;45.45;101415.59;5023018;28;20030;-93
2023/05/22 10:40:06;;;;;;;60.95;36.22;;;;;;;26.88;46.61;101400.66;5029701;28;20030;-92
2023/05/22 10:42:31;;;;;;;47.45;33.65;;;;;;;27.10;46.60;101399.38;5009984;28;20040;-92
2023/05/22 10:44:59;;;;;;;52.50;34.72;;;;;;;27.61;44.13;101402.34;5029381;28;20033;-92
2023/05/22 10:47:25;;;;;;;47.65;33.67;;;;;;;27.88;45.43;101404.03;5024596;28;20029;-94
2023/05/22 10:50:03;;;;;;;51.38;33.47;;;;;;;27.65;45.23;101403.69;5013832;28;20045;-92
2023/05/22 10:52:28;;;;;;;49.03;31.27;;;;;;;28.03;43.27;101399.75;5027051;28;20025;-91
2023/05/22 10:54:55;;;;;;;42.90;29.27;;;;;;;28.29;43.17;101387.94;5025324;28;20469;-90
2023/05/22 10:57:23;;;;;;;43.28;30.95;;;;;;;28.40;43.39;101396.72;5037023;28;20037;-92
2023/05/22 11:00:07;;;;;;;48.65;30.45;;;;;;;28.91;43.44;101386.63;5027083;28;20026;-91
2023/05/22 11:02:38;;;;;;;41.45;28.42;;;;;;;29.05;41.54;101390.59;5030561;28;20382;-92
2023/05/22 11:05:26;;;;;;;40.33;29.08;;;;;;;29.16;42.11;101400.28;5013111;28;20576;-92
2023/05/22 11:08:08;;;;;;;46.70;31.45;;;;;;;29.42;41.72;101387.31;5018715;28;20037;-93
2023/05/22 11:10:54;;;;;;;38.45;27.73;;;;;;;29.69;41.91;101390.75;5028440;28;20021;-91